Time;durP1;ratioP1;P1;durP2;ratioP2;P2;SDS_P1;SDS_P2;PMS_P1;PMS_P2;Temp;Humidity;BMP_temperature;BMP_pressure;BME280_temperature;BME280_humidity;BME280_pressure;Samples;Min_cycle;Max_cycle;Signal;HPM_P1;HPM_P2
2024/03/20 00:00:54;;;;;;;30.90;14.80;;;;;;;2.69;71.48;99710.71;107217;1258;71410;-37
2024/03/20 00:03:21;;;;;;;28.90;14.50;;;;;;;2.66;71.45;99708.54;107300;1256;60979;-37
2024/03/20 00:05:49;;;;;;;29.80;15.00;;;;;;;2.63;71.46;99708.63;107266;1256;61194;-37
2024/03/20 00:08:16;;;;;;;26.60;14.00;;;;;;;2.59;71.45;99710.32;107274;1256;73445;-37
2024/03/20 00:10:45;;;;;;;22.90;13.90;;;;;;;2.54;71.12;99709.35;107215;1256;66292;-38
2024/03/20 00:13:13;;;;;;;24.10;14.00;;;;;;;2.48;71.03;99710.66;107172;1259;72908;-37
2024/03/20 00:15:40;;;;;;;22.90;13.10;;;;;;;2.41;71.09;99711.86;107186;1255;61376;-37
2024/03/20 00:18:08;;;;;;;27.00;13.70;;;;;;;2.35;70.73;99709.67;106456;1255;1005414;-37
2024/03/20 00:20:36;;;;;;;21.20;13.30;;;;;;;2.28;71.00;99706.70;107307;1257;74650;-37
2024/03/20 00:23:03;;;;;;;34.50;16.90;;;;;;;2.21;71.05;99705.64;107245;1261;65484;-37
2024/03/20 00:25:31;;;;;;;30.90;16.10;;;;;;;2.13;71.06;99697.50;107211;1261;71870;-37
2024/03/20 00:27:58;;;;;;;32.30;16.20;;;;;;;2.17;70.76;99697.96;107149;1259;61347;-37
2024/03/20 00:30:26;;;;;;;27.90;15.30;;;;;;;2.21;70.63;99696.45;107185;1261;61124;-37
2024/03/20 00:32:53;;;;;;;26.70;14.60;;;;;;;2.19;70.74;99699.91;107224;1260;74663;-37
2024/03/20 00:35:21;;;;;;;29.20;15.00;;;;;;;2.15;70.90;99698.95;107200;1256;66872;-37
2024/03/20 00:37:48;;;;;;;22.10;13.20;;;;;;;2.13;70.87;99693.16;107215;1261;72096;-37
2024/03/20 00:40:15;;;;;;;25.70;13.60;;;;;;;2.10;70.86;99693.33;107247;1261;61357;-37
2024/03/20 00:42:44;;;;;;;22.70;11.50;;;;;;;2.08;70.81;99687.38;107231;1257;61222;-37
2024/03/20 00:45:12;;;;;;;21.80;12.50;;;;;;;2.04;70.74;99687.02;107252;1256;74660;-37
2024/03/20 00:47:41;;;;;;;29.40;14.00;;;;;;;2.00;70.84;99688.91;107335;1258;66447;-37
2024/03/20 00:50:08;;;;;;;32.40;13.40;;;;;;;1.95;70.85;99688.30;107334;1259;72669;-37
2024/03/20 00:52:36;;;;;;;24.40;12.50;;;;;;;1.90;71.13;99687.60;107310;1255;60972;-37
2024/03/20 00:55:15;;;;;;;21.10;12.70;;;;;;;1.85;71.05;99686.77;107308;1254;61295;-38
2024/03/20 00:57:43;;;;;;;19.80;12.00;;;;;;;1.88;71.20;99684.40;107346;1254;73392;-38
2024/03/20 01:00:11;;;;;;;23.10;12.50;;;;;;;1.93;71.17;99683.40;107321;1255;66904;-38
2024/03/20 01:02:38;;;;;;;19.90;12.60;;;;;;;1.93;71.59;99681.98;107439;1259;72696;-38
2024/03/20 01:05:08;;;;;;;18.80;12.10;;;;;;;1.92;71.73;99680.98;107454;1256;61248;-38
2024/03/20 01:07:36;;;;;;;25.50;12.20;;;;;;;1.92;71.88;99679.00;107338;1255;61133;-37
2024/03/20 01:10:04;;;;;;;28.40;12.20;;;;;;;1.90;72.14;99679.30;107349;1257;74714;-38
2024/03/20 01:12:32;;;;;;;24.70;12.60;;;;;;;1.84;72.31;99676.20;107393;1258;67641;-38
2024/03/20 01:14:59;;;;;;;40.60;12.80;;;;;;;1.78;72.84;99675.35;107216;1257;71452;-38
2024/03/20 01:17:26;;;;;;;24.60;12.30;;;;;;;1.77;73.05;99676.16;107272;1260;61340;-37
2024/03/20 01:19:54;;;;;;;23.90;14.20;;;;;;;1.83;73.18;99676.16;107349;1254;61092;-38
2024/03/20 01:22:21;;;;;;;24.60;14.10;;;;;;;1.90;73.31;99674.21;107364;1254;74706;-38
2024/03/20 01:24:49;;;;;;;20.30;12.40;;;;;;;1.92;73.51;99676.44;107363;1256;67903;-38
2024/03/20 01:27:16;;;;;;;24.70;10.90;;;;;;;1.92;73.54;99671.04;107490;1256;71784;-37
2024/03/20 01:29:43;;;;;;;21.90;9.90;;;;;;;1.91;73.68;99669.17;107308;1254;61117;-38
2024/03/20 01:32:11;;;;;;;18.60;9.80;;;;;;;1.89;73.68;99665.73;105119;1254;1003809;-38
2024/03/20 01:34:38;;;;;;;22.10;9.60;;;;;;;1.87;73.58;99666.38;107348;1255;74673;-38
2024/03/20 01:37:05;;;;;;;15.50;9.90;;;;;;;1.81;73.59;99672.20;107292;1258;67581;-38
2024/03/20 01:39:33;;;;;;;13.70;9.40;;;;;;;1.73;73.44;99670.83;107255;1256;71118;-38
2024/03/20 01:42:00;;;;;;;15.50;10.50;;;;;;;1.74;73.47;99676.38;107293;1259;61344;-38
2024/03/20 01:44:28;;;;;;;15.70;9.80;;;;;;;1.79;73.48;99675.98;107356;1256;61117;-38
2024/03/20 01:46:55;;;;;;;22.40;11.00;;;;;;;1.79;73.91;99678.60;107327;1254;74672;-38
2024/03/20 01:49:23;;;;;;;16.90;10.20;;;;;;;1.81;74.05;99674.12;107342;1255;67227;-38
2024/03/20 01:51:50;;;;;;;20.20;10.00;;;;;;;1.83;73.83;99675.38;107350;1259;71128;-38
2024/03/20 01:54:18;;;;;;;16.00;10.60;;;;;;;1.84;73.28;99674.05;107308;1259;61215;-38
2024/03/20 01:56:45;;;;;;;23.10;11.50;;;;;;;1.82;73.53;99672.66;107471;1254;60094;-38
2024/03/20 01:59:13;;;;;;;15.80;10.10;;;;;;;1.78;73.21;99673.90;107456;1259;73398;-38
2024/03/20 02:01:41;;;;;;;14.20;9.90;;;;;;;1.74;72.94;99673.54;107420;1254;65458;-38
2024/03/20 02:04:08;;;;;;;13.60;9.40;;;;;;;1.67;72.97;99672.01;107309;1259;72731;-38
2024/03/20 02:06:35;;;;;;;10.30;7.50;;;;;;;1.68;72.66;99675.05;107304;1258;61237;-38
2024/03/20 02:09:07;;;;;;;13.20;9.50;;;;;;;1.70;72.63;99675.30;107439;1255;61239;-38
2024/03/20 02:11:34;;;;;;;10.80;8.50;;;;;;;1.69;72.73;99679.93;107254;1257;73366;-38
2024/03/20 02:14:02;;;;;;;11.60;8.30;;;;;;;1.68;72.94;99677.49;107035;1261;67922;-38
2024/03/20 02:16:30;;;;;;;14.20;9.20;;;;;;;1.66;72.78;99676.35;107239;1260;71412;-38
2024/03/20 02:18:57;;;;;;;12.90;9.20;;;;;;;1.57;72.60;99675.32;107231;1257;61948;-38
2024/03/20 02:21:25;;;;;;;14.10;10.10;;;;;;;1.48;72.39;99678.61;107244;1258;61280;-38
2024/03/20 02:23:52;;;;;;;13.00;9.70;;;;;;;1.44;72.42;99675.74;107239;1257;73739;-38
2024/03/20 02:26:19;;;;;;;13.30;10.10;;;;;;;1.40;72.39;99675.86;107258;1260;67646;-38
2024/03/20 02:28:47;;;;;;;15.50;10.60;;;;;;;1.28;72.25;99671.86;107116;1257;71578;-38
2024/03/20 02:31:15;;;;;;;16.20;11.90;;;;;;;1.16;72.20;99671.89;107150;1260;61348;-38
2024/03/20 02:33:42;;;;;;;12.60;10.10;;;;;;;1.04;72.39;99662.36;107239;1260;61081;-38
2024/03/20 02:36:10;;;;;;;15.00;10.80;;;;;;;1.08;72.37;99665.87;107301;1261;73718;-38
2024/03/20 02:38:38;;;;;;;12.60;9.40;;;;;;;1.03;72.84;99663.48;107267;1261;66426;-38
2024/03/20 02:41:06;;;;;;;12.50;9.40;;;;;;;1.00;73.12;99662.79;107265;1260;72748;-38
2024/03/20 02:43:34;;;;;;;13.30;10.00;;;;;;;0.99;73.52;99666.80;107239;1257;61146;-38
2024/03/20 02:46:01;;;;;;;13.40;9.90;;;;;;;1.01;73.60;99667.61;107141;1260;61103;-38
2024/03/20 02:48:29;;;;;;;14.80;10.50;;;;;;;1.02;73.39;99666.70;107241;1257;74631;-38
2024/03/20 02:50:57;;;;;;;14.50;10.60;;;;;;;1.03;73.23;99666.58;107265;1260;67272;-38
2024/03/20 02:53:24;;;;;;;15.00;11.00;;;;;;;1.01;72.85;99664.85;107245;1258;71402;-38
2024/03/20 02:55:51;;;;;;;15.70;10.70;;;;;;;0.97;72.68;99665.16;107256;1260;61323;-37
2024/03/20 02:58:19;;;;;;;17.10;12.30;;;;;;;0.97;72.55;99661.75;107252;1257;61253;-38
2024/03/20 03:00:46;;;;;;;16.50;11.10;;;;;;;1.00;72.35;99661.29;107110;1257;191932;-38
2024/03/20 03:03:53;;;;;;;16.50;11.20;;;;;;;1.01;72.74;99667.52;104189;1292;600597;-37
2024/03/20 03:06:21;;;;;;;15.80;11.10;;;;;;;1.00;72.78;99673.41;106698;1263;59378;-37
2024/03/20 03:08:48;;;;;;;16.60;11.10;;;;;;;0.98;72.88;99673.42;106737;1263;59563;-37
2024/03/20 03:11:15;;;;;;;15.60;10.60;;;;;;;0.97;72.94;99673.13;106735;1269;73043;-37
2024/03/20 03:13:44;;;;;;;14.70;10.70;;;;;;;0.96;72.98;99673.74;106717;1263;66639;-37
2024/03/20 03:16:12;;;;;;;15.20;10.70;;;;;;;0.91;72.73;99678.50;106747;1263;71827;-37
2024/03/20 03:18:39;;;;;;;16.10;10.50;;;;;;;0.87;72.53;99679.78;106723;1260;181473;-37
2024/03/20 03:21:10;;;;;;;13.70;9.80;;;;;;;0.84;72.76;99680.73;106867;1260;59659;-37
2024/03/20 03:23:37;;;;;;;13.60;9.70;;;;;;;0.88;72.31;99689.22;106734;1261;71830;-37
2024/03/20 03:26:05;;;;;;;12.10;8.60;;;;;;;0.92;72.44;99688.56;106717;1262;68001;-37
2024/03/20 03:28:32;;;;;;;13.10;9.00;;;;;;;0.93;72.48;99690.42;106810;1263;71435;-37
2024/03/20 03:31:00;;;;;;;14.30;8.90;;;;;;;0.93;72.73;99692.02;106875;1263;60472;-37
2024/03/20 03:33:27;;;;;;;14.60;9.90;;;;;;;0.96;72.56;99695.79;106870;1261;60448;-37
2024/03/20 03:36:08;;;;;;;15.50;9.50;;;;;;;0.96;72.71;99702.61;106855;1260;73870;-37
2024/03/20 03:38:36;;;;;;;14.60;10.10;;;;;;;0.97;72.66;99699.61;106933;1260;66623;-37
2024/03/20 03:41:03;;;;;;;14.20;9.10;;;;;;;0.97;72.53;99700.95;106866;1263;71425;-37
2024/03/20 03:43:31;;;;;;;13.10;8.90;;;;;;;0.95;72.56;99697.71;106107;1263;1003229;-38
2024/03/20 03:45:58;;;;;;;11.90;7.80;;;;;;;0.90;72.69;99697.41;106908;1263;59262;-38
2024/03/20 03:48:26;;;;;;;9.40;6.90;;;;;;;0.91;72.78;99693.97;106747;1263;73896;-37
2024/03/20 03:50:53;;;;;;;8.40;6.60;;;;;;;0.99;72.79;99693.61;106890;1260;66337;-38
2024/03/20 03:53:23;;;;;;;7.80;5.80;;;;;;;1.00;73.37;99693.48;106846;1263;73151;-38
2024/03/20 03:55:50;;;;;;;8.60;6.30;;;;;;;0.98;73.81;99693.71;106866;1262;60406;-37
2024/03/20 03:58:17;;;;;;;9.00;6.20;;;;;;;1.00;74.07;99691.66;106906;1264;60553;-37
2024/03/20 04:00:45;;;;;;;9.00;6.20;;;;;;;1.03;74.27;99691.41;106890;1263;72614;-38
2024/03/20 04:03:12;;;;;;;9.80;6.80;;;;;;;1.04;74.42;99690.05;106914;1263;66609;-37
2024/03/20 04:05:39;;;;;;;8.50;6.40;;;;;;;1.05;74.50;99694.80;106856;1263;71658;-37
2024/03/20 04:08:07;;;;;;;10.60;6.90;;;;;;;1.05;74.39;99691.97;106846;1263;60506;-37
2024/03/20 04:10:36;;;;;;;10.50;7.40;;;;;;;1.12;73.94;99691.98;106867;1263;60453;-37
2024/03/20 04:13:04;;;;;;;9.60;7.00;;;;;;;1.22;73.70;99692.16;106866;1262;73874;-37
2024/03/20 04:15:32;;;;;;;12.50;7.70;;;;;;;1.26;73.31;99693.10;106861;1262;67753;-37
2024/03/20 04:17:59;;;;;;;11.40;7.90;;;;;;;1.27;72.95;99698.42;106698;1263;72695;-37
2024/03/20 04:20:27;;;;;;;10.90;6.90;;;;;;;1.27;73.00;99701.80;106685;1263;60332;-37
2024/03/20 04:22:54;;;;;;;9.70;6.70;;;;;;;1.28;73.06;99702.85;106709;1263;60002;-37
2024/03/20 04:25:28;;;;;;;8.50;7.00;;;;;;;1.29;72.89;99704.23;106716;1263;73875;-37
2024/03/20 04:27:57;;;;;;;8.90;7.00;;;;;;;1.27;72.84;99705.31;106753;1263;67931;-37
2024/03/20 04:30:24;;;;;;;11.70;8.10;;;;;;;1.26;72.90;99707.27;106821;1263;72717;-37
2024/03/20 04:32:51;;;;;;;11.10;8.20;;;;;;;1.25;72.96;99709.90;106859;1267;61080;-37
2024/03/20 04:35:19;;;;;;;13.20;9.10;;;;;;;1.23;72.74;99712.11;106875;1263;60564;-37
2024/03/20 04:37:46;;;;;;;11.40;8.00;;;;;;;1.22;72.77;99712.98;106878;1263;73802;-37
2024/03/20 04:40:14;;;;;;;11.20;7.90;;;;;;;1.29;72.67;99714.70;106856;1263;66427;-37
2024/03/20 04:42:41;;;;;;;11.90;8.30;;;;;;;1.40;72.48;99715.07;106884;1263;71483;-37
2024/03/20 04:45:12;;;;;;;10.80;7.50;;;;;;;1.45;72.63;99714.98;106843;1263;61004;-37
2024/03/20 04:47:39;;;;;;;10.60;7.60;;;;;;;1.48;72.57;99714.79;106876;1263;60309;-37
2024/03/20 04:50:10;;;;;;;10.20;7.30;;;;;;;1.51;72.78;99714.42;106837;1263;73886;-37
2024/03/20 04:52:38;;;;;;;9.90;7.20;;;;;;;1.55;72.74;99714.05;106815;1262;65314;-37
2024/03/20 04:55:06;;;;;;;12.30;8.10;;;;;;;1.57;72.81;99713.41;106792;1263;71486;-37
2024/03/20 04:57:34;;;;;;;12.10;8.40;;;;;;;1.59;72.78;99714.73;106909;1263;60444;-37
2024/03/20 05:00:05;;;;;;;19.10;11.70;;;;;;;1.57;72.78;99712.66;106835;1263;59750;-37
2024/03/20 05:02:33;;;;;;;15.40;10.10;;;;;;;1.53;72.95;99711.94;106856;1262;72602;-37
2024/03/20 05:05:00;;;;;;;15.00;9.70;;;;;;;1.56;72.94;99713.17;106837;1262;66814;-37
2024/03/20 05:07:27;;;;;;;13.00;8.70;;;;;;;1.64;72.96;99712.57;106868;1268;72768;-37
2024/03/20 05:09:55;;;;;;;10.20;7.20;;;;;;;1.68;73.47;99709.45;106835;1263;60387;-37
2024/03/20 05:12:22;;;;;;;9.70;6.80;;;;;;;1.68;73.55;99709.56;106853;1263;61038;-37
2024/03/20 05:14:50;;;;;;;11.50;6.70;;;;;;;1.71;73.79;99711.32;106832;1263;72587;-37
2024/03/20 05:17:17;;;;;;;9.20;6.40;;;;;;;1.74;73.89;99713.20;106730;1263;68004;-37
2024/03/20 05:19:45;;;;;;;8.80;6.10;;;;;;;1.71;74.08;99715.54;106720;1263;71413;-37
2024/03/20 05:22:12;;;;;;;10.80;6.90;;;;;;;1.68;73.99;99716.02;106739;1263;60434;-37
2024/03/20 05:24:40;;;;;;;10.70;7.30;;;;;;;1.71;74.30;99721.33;106771;1266;60326;-37
2024/03/20 05:27:07;;;;;;;8.60;6.60;;;;;;;1.78;74.47;99719.08;106737;1263;72575;-37
2024/03/20 05:29:35;;;;;;;9.70;7.50;;;;;;;1.81;74.97;99727.20;106758;1262;66798;-37
2024/03/20 05:32:02;;;;;;;9.80;7.60;;;;;;;1.82;74.81;99734.23;106836;1267;72770;-37
2024/03/20 05:34:30;;;;;;;8.90;7.30;;;;;;;1.85;75.44;99742.85;106858;1263;60417;-37
2024/03/20 05:36:58;;;;;;;8.50;6.30;;;;;;;1.90;75.54;99747.64;106873;1263;60320;-37
2024/03/20 05:39:25;;;;;;;8.80;5.90;;;;;;;1.93;76.00;99750.58;107362;1254;72687;-37
2024/03/20 05:41:53;;;;;;;8.20;5.60;;;;;;;2.01;75.95;99750.61;107361;1258;65801;-37
2024/03/20 05:44:22;;;;;;;10.20;5.50;;;;;;;2.12;75.66;99753.52;107349;1253;72707;-37
2024/03/20 05:46:51;;;;;;;8.00;6.10;;;;;;;2.22;75.65;99752.66;107348;1258;60383;-37
2024/03/20 05:49:18;;;;;;;7.40;5.10;;;;;;;2.24;75.73;99756.84;107383;1253;60466;-37
2024/03/20 05:51:49;;;;;;;13.20;6.20;;;;;;;2.27;75.91;99755.68;107352;1253;72610;-38
2024/03/20 05:54:17;;;;;;;6.70;5.20;;;;;;;2.30;76.05;99766.86;107366;1254;66762;-37
2024/03/20 05:56:44;;;;;;;6.00;5.10;;;;;;;2.28;75.85;99766.61;107371;1253;72652;-38
2024/03/20 05:59:13;;;;;;;7.70;4.90;;;;;;;2.28;76.33;99767.64;107312;1256;60885;-38
2024/03/20 06:01:41;;;;;;;6.20;4.70;;;;;;;2.40;76.20;99764.38;107401;1253;60440;-37
2024/03/20 06:04:09;;;;;;;8.70;4.70;;;;;;;2.48;76.00;99764.55;107317;1253;72502;-37
2024/03/20 06:06:37;;;;;;;7.10;5.40;;;;;;;2.51;76.23;99763.62;107371;1253;69076;-36
2024/03/20 06:09:04;;;;;;;6.80;5.10;;;;;;;2.54;76.33;99764.64;107344;1254;73053;-37
2024/03/20 06:11:44;;;;;;;9.50;5.80;;;;;;;2.57;76.53;99769.66;107379;1254;60306;-37
2024/03/20 06:14:12;;;;;;;7.70;5.70;;;;;;;2.59;76.70;99768.29;107432;1258;60052;-37
2024/03/20 06:16:40;;;;;;;8.10;5.70;;;;;;;2.67;76.81;99776.23;106616;1259;1003010;-37
2024/03/20 06:19:07;;;;;;;8.20;6.20;;;;;;;2.78;76.61;99773.51;107439;1254;66642;-37
2024/03/20 06:21:35;;;;;;;7.60;5.80;;;;;;;2.83;76.35;99778.27;107400;1257;71390;-38
2024/03/20 06:24:04;;;;;;;8.50;6.40;;;;;;;2.80;76.39;99784.91;107345;1257;60351;-37
2024/03/20 06:26:32;;;;;;;8.50;6.50;;;;;;;2.78;76.77;99788.76;107418;1254;60328;-38
2024/03/20 06:28:59;;;;;;;9.60;6.80;;;;;;;2.79;76.92;99791.33;107416;1254;73933;-38
2024/03/20 06:31:27;;;;;;;9.00;6.90;;;;;;;2.79;77.12;99793.14;107409;1253;68029;-38
2024/03/20 06:33:54;;;;;;;8.60;6.40;;;;;;;2.87;76.98;99791.33;107376;1254;72845;-37
2024/03/20 06:36:21;;;;;;;10.40;8.00;;;;;;;2.98;76.95;99787.77;107371;1255;60425;-38
2024/03/20 06:38:49;;;;;;;10.60;7.40;;;;;;;3.02;76.79;99786.45;107404;1254;60534;-37
2024/03/20 06:41:17;;;;;;;11.40;7.90;;;;;;;3.02;76.82;99783.58;107446;1254;72567;-38
2024/03/20 06:43:50;;;;;;;11.00;8.20;;;;;;;3.02;77.13;99775.54;107397;1253;67611;-37
2024/03/20 06:46:17;;;;;;;12.70;8.10;;;;;;;3.04;77.43;99780.84;107431;1254;72672;-38
2024/03/20 06:48:46;;;;;;;11.10;8.10;;;;;;;3.09;77.36;99783.34;107476;1254;60910;-38
2024/03/20 06:51:20;;;;;;;9.80;7.60;;;;;;;3.22;77.52;99784.77;107390;1255;60521;-38
2024/03/20 06:53:48;;;;;;;10.30;7.60;;;;;;;3.38;77.09;99786.23;107410;1254;72451;-38
2024/03/20 06:56:15;;;;;;;10.40;7.90;;;;;;;3.44;76.90;99784.02;107372;1254;67589;-38
2024/03/20 06:58:42;;;;;;;11.40;7.80;;;;;;;3.47;76.70;99779.84;107325;1254;72757;-38
2024/03/20 07:01:10;;;;;;;15.60;7.90;;;;;;;3.50;76.78;99777.30;107332;1257;60428;-37
2024/03/20 07:03:37;;;;;;;11.60;8.10;;;;;;;3.54;76.82;99775.16;107335;1254;60283;-37
2024/03/20 07:06:06;;;;;;;11.30;7.70;;;;;;;3.55;76.63;99772.51;107355;1254;73950;-37
2024/03/20 07:08:33;;;;;;;10.30;7.60;;;;;;;3.66;76.63;99780.30;104405;1254;1003784;-37
2024/03/20 07:11:04;;;;;;;11.90;8.10;;;;;;;3.81;76.77;99777.54;107365;1254;72716;-37
2024/03/20 07:13:31;;;;;;;13.20;8.00;;;;;;;3.91;76.95;99778.42;107380;1256;61122;-37
2024/03/20 07:15:59;;;;;;;12.10;9.00;;;;;;;3.97;76.99;99781.42;107371;1254;61288;-37
2024/03/20 07:18:26;;;;;;;11.80;8.50;;;;;;;4.00;77.08;99786.21;107388;1254;73839;-37
2024/03/20 07:20:54;;;;;;;12.90;7.60;;;;;;;4.04;77.44;99791.79;107419;1259;67677;-37
2024/03/20 07:23:21;;;;;;;10.20;7.70;;;;;;;4.13;77.81;99787.13;107363;1254;72662;-37
2024/03/20 07:25:49;;;;;;;9.80;6.90;;;;;;;4.26;77.40;99783.03;107345;1256;61399;-37
2024/03/20 07:28:16;;;;;;;9.80;6.90;;;;;;;4.33;77.03;99787.84;107369;1254;61228;-37
2024/03/20 07:30:44;;;;;;;11.70;7.60;;;;;;;4.32;77.23;99787.17;107371;1254;73544;-37
2024/03/20 07:33:12;;;;;;;10.20;7.20;;;;;;;4.33;77.24;99784.15;107388;1254;66696;-38
2024/03/20 07:35:47;;;;;;;10.20;7.20;;;;;;;4.33;77.23;99788.55;107371;1254;72812;-38
2024/03/20 07:38:14;;;;;;;10.50;7.50;;;;;;;4.30;76.99;99785.89;107500;1254;61317;-37
2024/03/20 07:40:42;;;;;;;10.20;7.30;;;;;;;4.30;76.84;99787.39;107353;1254;62236;-37
2024/03/20 07:43:12;;;;;;;9.10;6.40;;;;;;;4.42;76.50;99786.66;107319;1254;74111;-37
2024/03/20 07:45:40;;;;;;;7.90;5.80;;;;;;;4.49;76.77;99784.39;107325;1253;66925;-37
2024/03/20 07:48:07;;;;;;;5.70;4.90;;;;;;;4.53;76.62;99783.75;107326;1259;72432;-37
2024/03/20 07:50:35;;;;;;;6.60;5.50;;;;;;;4.52;75.86;99784.36;107358;1254;60395;-37
2024/03/20 07:53:02;;;;;;;7.40;5.60;;;;;;;4.48;75.94;99790.22;107374;1254;60244;-38
2024/03/20 07:55:30;;;;;;;6.70;5.20;;;;;;;4.46;76.04;99790.77;107450;1253;74972;-38
2024/03/20 07:57:57;;;;;;;6.80;5.40;;;;;;;4.47;76.10;99786.66;107380;1254;66841;-37
2024/03/20 08:00:28;;;;;;;6.90;5.10;;;;;;;4.55;75.51;99783.41;107364;1257;71550;-37
2024/03/20 08:02:58;;;;;;;7.60;5.40;;;;;;;4.55;75.27;99785.46;107383;1256;61250;-37
2024/03/20 08:05:26;;;;;;;5.70;4.40;;;;;;;4.51;75.61;99788.34;107445;1254;61106;-38
2024/03/20 08:07:53;;;;;;;6.80;5.10;;;;;;;4.50;75.80;99789.29;107388;1259;74784;-38
2024/03/20 08:10:22;;;;;;;8.40;5.00;;;;;;;4.54;76.03;99783.93;107402;1259;68210;-38
2024/03/20 08:12:50;;;;;;;6.50;4.60;;;;;;;4.56;75.86;99790.20;107365;1257;70998;-38
2024/03/20 08:15:17;;;;;;;5.50;4.50;;;;;;;4.66;75.64;99792.42;107374;1254;62151;-38
2024/03/20 08:17:46;;;;;;;5.80;5.00;;;;;;;4.84;75.40;99784.83;107436;1254;61225;-38
2024/03/20 08:20:14;;;;;;;6.20;5.10;;;;;;;4.97;75.15;99780.81;107402;1254;72565;-38
2024/03/20 08:22:41;;;;;;;7.00;5.50;;;;;;;5.03;74.85;99784.78;107429;1254;70211;-37
2024/03/20 08:25:10;;;;;;;6.10;5.10;;;;;;;5.05;74.30;99786.55;107306;1257;73261;-37
2024/03/20 08:27:37;;;;;;;6.80;5.50;;;;;;;5.01;73.67;99787.09;107324;1254;61291;-37
2024/03/20 08:30:07;;;;;;;7.60;6.00;;;;;;;4.94;73.30;99784.98;107504;1254;60494;-37
2024/03/20 08:32:34;;;;;;;6.80;5.40;;;;;;;4.89;73.68;99786.42;107405;1254;74785;-37
2024/03/20 08:35:03;;;;;;;7.00;4.90;;;;;;;4.94;73.46;99784.89;107394;1259;67895;-37
2024/03/20 08:37:31;;;;;;;5.50;4.60;;;;;;;5.01;73.53;99783.61;107296;1260;74922;-37
2024/03/20 08:40:01;;;;;;;7.10;5.50;;;;;;;5.02;73.53;99786.98;107360;1256;61205;-37
2024/03/20 08:42:28;;;;;;;6.10;4.80;;;;;;;5.00;73.33;99788.03;107322;1254;61068;-37
2024/03/20 08:44:56;;;;;;;6.20;5.10;;;;;;;4.97;73.50;99793.95;107384;1254;73501;-37
2024/03/20 08:47:23;;;;;;;7.40;5.50;;;;;;;4.94;73.33;99793.10;107395;1253;66841;-38
2024/03/20 08:49:51;;;;;;;6.50;5.00;;;;;;;4.89;73.35;99791.10;107366;1254;72032;-38
2024/03/20 08:52:19;;;;;;;6.10;4.60;;;;;;;4.89;73.08;99787.46;107468;1254;61877;-38
2024/03/20 08:54:49;;;;;;;4.50;3.70;;;;;;;4.99;73.03;99787.54;107402;1254;61439;-36
2024/03/20 08:57:17;;;;;;;5.00;3.80;;;;;;;5.05;72.53;99789.40;107350;1254;73513;-38
2024/03/20 08:59:45;;;;;;;5.50;4.30;;;;;;;5.08;72.55;99785.40;107370;1253;68180;-38
2024/03/20 09:02:13;;;;;;;6.60;4.60;;;;;;;5.15;72.19;99781.00;107342;1259;73061;-38
2024/03/20 09:04:40;;;;;;;5.90;4.50;;;;;;;5.19;71.94;99786.94;105892;1254;1003509;-38
2024/03/20 09:07:08;;;;;;;6.20;4.60;;;;;;;5.19;71.59;99784.16;106572;1254;1002538;-37
2024/03/20 09:09:35;;;;;;;5.90;4.30;;;;;;;5.18;71.64;99788.02;107274;1254;75075;-38
2024/03/20 09:12:04;;;;;;;5.40;3.70;;;;;;;5.13;71.49;99783.90;107348;1254;66491;-38
2024/03/20 09:14:34;;;;;;;5.00;3.70;;;;;;;5.24;71.43;99786.11;107427;1259;74864;-38
2024/03/20 09:17:02;;;;;;;7.50;3.70;;;;;;;5.39;71.26;99788.54;107381;1254;61233;-38
2024/03/20 09:19:31;;;;;;;3.60;3.30;;;;;;;5.45;70.91;99787.27;107390;1254;61092;-38
2024/03/20 09:21:59;;;;;;;4.00;3.10;;;;;;;5.52;70.75;99787.22;107372;1253;74788;-38
2024/03/20 09:24:29;;;;;;;6.40;4.00;;;;;;;5.61;70.40;99782.41;107388;1259;66719;-38
2024/03/20 09:26:56;;;;;;;6.20;3.60;;;;;;;5.68;69.85;99779.66;107410;1257;71451;-38
2024/03/20 09:29:24;;;;;;;3.90;3.30;;;;;;;5.73;69.67;99784.32;107395;1259;61904;-38
2024/03/20 09:31:51;;;;;;;4.40;3.40;;;;;;;5.78;69.11;99780.52;107386;1254;61156;-38
2024/03/20 09:34:19;;;;;;;4.50;3.30;;;;;;;5.80;69.09;99779.73;107500;1254;73446;-38
2024/03/20 09:36:49;;;;;;;4.00;3.20;;;;;;;5.87;68.66;99779.73;107404;1254;68070;-38
2024/03/20 09:39:18;;;;;;;5.40;3.20;;;;;;;5.90;68.47;99778.43;107368;1259;71855;-38
2024/03/20 09:41:46;;;;;;;3.20;2.90;;;;;;;5.92;68.63;99778.20;107462;1254;61227;-38
2024/03/20 09:44:13;;;;;;;3.60;2.70;;;;;;;6.00;68.93;99775.48;107392;1254;62565;-38
2024/03/20 09:46:41;;;;;;;3.20;2.80;;;;;;;6.12;68.24;99777.77;107282;1257;74769;-38
2024/03/20 09:49:09;;;;;;;3.30;2.90;;;;;;;6.22;68.23;99774.14;107074;1259;67137;-38
2024/03/20 09:51:36;;;;;;;4.40;3.00;;;;;;;6.31;67.99;99771.36;107298;1258;73109;-38
2024/03/20 09:54:04;;;;;;;4.00;3.10;;;;;;;6.40;67.62;99773.33;107317;1257;61578;-38
2024/03/20 09:56:31;;;;;;;3.90;2.60;;;;;;;6.46;67.37;99774.92;107137;1253;61362;-38
2024/03/20 09:58:59;;;;;;;2.60;2.30;;;;;;;6.61;66.54;99774.75;107287;1259;77298;-38
2024/03/20 10:01:26;;;;;;;3.90;2.90;;;;;;;6.71;66.05;99774.56;107342;1254;67211;-38
2024/03/20 10:03:54;;;;;;;5.10;2.60;;;;;;;6.76;66.02;99773.64;107354;1257;74749;-38
2024/03/20 10:06:25;;;;;;;3.20;2.60;;;;;;;6.82;65.66;99772.92;107376;1259;62256;-38
2024/03/20 10:08:53;;;;;;;3.30;2.50;;;;;;;6.88;65.04;99764.08;107418;1254;61116;-37
2024/03/20 10:11:20;;;;;;;3.70;2.90;;;;;;;6.96;64.92;99760.70;107506;1255;73436;-37
2024/03/20 10:13:47;;;;;;;6.30;2.80;;;;;;;7.13;64.79;99759.88;107432;1254;66956;-38
2024/03/20 10:16:16;;;;;;;2.80;2.40;;;;;;;7.34;64.03;99759.23;107383;1259;73793;-38
2024/03/20 10:18:53;;;;;;;2.80;2.50;;;;;;;7.52;63.80;99758.13;107397;1257;61221;-37
2024/03/20 10:21:21;;;;;;;2.40;2.20;;;;;;;7.72;63.92;99752.95;107412;1259;61106;-37
2024/03/20 10:23:52;;;;;;;3.40;2.50;;;;;;;7.92;62.73;99749.86;107392;1258;76038;-38
2024/03/20 10:26:20;;;;;;;3.40;2.80;;;;;;;8.05;62.23;99749.13;107473;1254;69863;-38
2024/03/20 10:28:48;;;;;;;3.30;2.60;;;;;;;8.23;61.16;99741.79;107302;1260;74798;-38
2024/03/20 10:31:20;;;;;;;3.00;2.70;;;;;;;8.42;60.60;99740.19;107318;1258;61497;-38
2024/03/20 10:33:57;;;;;;;3.40;3.10;;;;;;;8.54;60.52;99739.28;105831;1260;1003460;-37
2024/03/20 10:36:24;;;;;;;3.70;3.10;;;;;;;8.58;60.64;99739.57;107285;1255;74782;-38
2024/03/20 10:38:52;;;;;;;3.30;2.90;;;;;;;8.58;60.41;99735.34;107327;1259;70232;-38
2024/03/20 10:41:19;;;;;;;3.10;2.60;;;;;;;8.54;60.41;99738.06;107173;1254;72847;-38
2024/03/20 10:43:47;;;;;;;2.90;2.50;;;;;;;8.54;60.39;99730.95;107399;1254;61943;-37
2024/03/20 10:46:16;;;;;;;2.80;2.40;;;;;;;8.52;59.60;99730.34;107372;1255;61836;-38
2024/03/20 10:48:44;;;;;;;2.60;2.30;;;;;;;8.46;59.51;99724.11;107479;1254;73518;-37
2024/03/20 10:51:13;;;;;;;3.30;2.30;;;;;;;8.38;59.48;99719.46;107334;1260;68342;-37
2024/03/20 10:53:41;;;;;;;2.30;1.70;;;;;;;8.30;59.72;99719.10;106685;1254;1002858;-37
2024/03/20 10:56:18;;;;;;;3.00;2.60;;;;;;;8.21;59.94;99722.34;107402;1254;61234;-37
2024/03/20 10:59:01;;;;;;;2.90;2.50;;;;;;;8.12;60.17;99714.64;107408;1254;60974;-37
2024/03/20 11:01:28;;;;;;;2.60;2.40;;;;;;;8.01;60.08;99717.27;107421;1254;75050;-37
2024/03/20 11:03:56;;;;;;;2.50;2.30;;;;;;;7.87;59.92;99712.84;107291;1261;66677;-38
2024/03/20 11:06:38;;;;;;;3.30;2.70;;;;;;;7.73;59.99;99708.34;107414;1259;73216;-37
2024/03/20 11:09:07;;;;;;;2.80;2.30;;;;;;;7.63;60.37;99704.96;107377;1254;61292;-38
2024/03/20 11:11:35;;;;;;;3.60;2.60;;;;;;;7.54;60.59;99703.24;107413;1254;61112;-38
2024/03/20 11:14:04;;;;;;;2.90;2.50;;;;;;;7.44;60.82;99699.36;107349;1259;74818;-38
2024/03/20 11:16:33;;;;;;;3.50;2.80;;;;;;;7.33;60.91;99695.95;107372;1254;68209;-38
2024/03/20 11:19:06;;;;;;;2.90;2.50;;;;;;;7.25;61.27;99693.72;107324;1259;72839;-38
2024/03/20 11:21:34;;;;;;;3.00;2.50;;;;;;;7.20;61.57;99693.92;107324;1255;61237;-39
2024/03/20 11:24:03;;;;;;;2.80;2.30;;;;;;;7.15;61.87;99689.19;107169;1253;61108;-39
2024/03/20 11:26:31;;;;;;;2.80;2.40;;;;;;;7.04;62.08;99681.91;107426;1255;74772;-39
2024/03/20 11:28:59;;;;;;;3.00;2.30;;;;;;;7.04;62.32;99686.52;107406;1254;66540;-39
2024/03/20 11:31:27;;;;;;;2.70;2.20;;;;;;;7.00;62.71;99685.22;107454;1257;73530;-39